Flagstaff, AZ (86002)

10:23 PM MST on September 22, 2014 (GMT -0700)
Elk Run | Change Station
CLOSE
Current Station
Personal Weather Station
Location: Flagstaff, AZ
Elevation: 6855 ft
Nearby Weather Stations

Elev 6855 ft 35.21 °N, 111.60 °W | Updated 8 seconds ago

Clear
Clear
55.0 °F
Feels Like 55.0 °F
N
0.9
Wind Variable Wind from WSW
Gusts 2.0 mph

Today
High -- | Low -- °F
--% Chance of Precip.
Yesterday
High -- | Low -- °F
Precip. -- in
6:14 AM 6:22 PM
Waning Crescent, 1% visible
Pressure 30.08 in
Visibility 10.0 miles
Clouds Clear
Dew Point 48 °F
Humidity 76%
Rainfall 0.00 in
Snow Depth 0 in , 0 in , 0 in
UV 0 out of 12
Pollen 6.30 out of 12
Air Quality Not available.
Flu Activity Not available.
METAR KFLG 230457Z AUTO 00000KT 10SM CLR 12/08 A3034 RMK AO2 SLP184 T01170083 TSNO $

More Conditions Fewer Conditions

Pressure 30.08 in
Visibility 10.0 miles
Clouds Clear
Dew Point 48 °F
Humidity 76%
Rainfall 0.00 in
Snow Depth 0 in , 0 in , 0 in
UV 0 out of 12
Pollen 6.30 out of 12
Air Quality Not available.
Flu Activity Not available.
METAR KFLG 230457Z AUTO 00000KT 10SM CLR 12/08 A3034 RMK AO2 SLP184 T01170083 TSNO $

More Conditions Fewer Conditions

10-Day Weather Forecast

Almanac

Astronomy

Sep. 22, 2014 Rise Set
Actual Time 6:14 AM MST 6:22 PM MST
Civil Twilight 5:48 AM MST 6:48 PM MST
Nautical Twilight 5:19 AM MST 7:17 PM MST
Astronomical Twilight 4:49 AM MST 7:47 PM MST
Moon 4:48 AM MST (9/22) 5:31 PM MST (9/22)
Length of Visible Light 12h 59m
Length of Day
12h 08m
Tomorrow will be 2m 12s shorter.
Waning Crescent, 1% of the Moon is Illuminated
Sep 23
Waning Crescent
Sep 24
New
Oct 1
First Quarter
Oct 8
Full
Oct 15
Last Quarter

Yesterday's Extremes

State Highs State Lows

Community

WunderPhotos

Upload Photos

1,755,606 photos uploaded!

Nearby

Snow Depth

Station Depth Elevation
Maverick Fork 0 in 9200 ft
Promontory 0 in 7930 ft
Coronado Trail 0 in 8400 ft
Workman Creek 2 in 6900 ft
Wildcat 0 in 7850 ft

Earthquake Activity

City Distance Mag. Time & Date
No recent earthquake activity has been reported nearby.
Minimum magnitude displayed is 2.5.

Coastal Water Temperatures

Place Temperature
No Stations Reporting

Nearby Weather Stations